Time;durP1;ratioP1;P1;durP2;ratioP2;P2;SDS_P1;SDS_P2;PMS_P1;PMS_P2;Temp;Humidity;BMP_temperature;BMP_pressure;BME280_temperature;BME280_humidity;BME280_pressure;Samples;Min_cycle;Max_cycle;Signal;HPM_P1;HPM_P2
2020/12/03 00:01:52;;;;;;;38.20;34.70;;;;;;;;;;5074544;28;20658;-81
2020/12/03 00:04:19;;;;;;;36.75;33.40;;;;;;;;;;5074801;28;20200;-82
2020/12/03 00:06:48;;;;;;;35.45;32.20;;;;;;;;;;5074524;28;20184;-82
2020/12/03 00:09:16;;;;;;;34.88;31.67;;;;;;;;;;5074537;28;20190;-82
2020/12/03 00:11:44;;;;;;;36.10;32.95;;;;;;;;;;5074448;28;20192;-81
2020/12/03 00:14:12;;;;;;;35.35;32.25;;;;;;;;;;5074682;28;20229;-82
2020/12/03 00:16:39;;;;;;;37.03;33.78;;;;;;;;;;5074051;28;20299;-82
2020/12/03 00:19:09;;;;;;;35.58;32.63;;;;;;;;;;5074620;28;20192;-82
2020/12/03 00:21:37;;;;;;;36.10;32.90;;;;;;;;;;5074484;28;20646;-82
2020/12/03 00:24:04;;;;;;;36.88;33.50;;;;;;;;;;5074613;28;20193;-82
2020/12/03 00:26:31;;;;;;;34.75;31.45;;;;;;;;;;5073887;28;20185;-81
2020/12/03 00:28:58;;;;;;;35.88;32.72;;;;;;;;;;5074419;28;20627;-82
2020/12/03 00:31:26;;;;;;;36.75;33.55;;;;;;;;;;5074313;28;20314;-81
2020/12/03 00:33:53;;;;;;;36.75;33.33;;;;;;;;;;5073994;28;20189;-82
2020/12/03 00:36:21;;;;;;;37.03;33.67;;;;;;;;;;5074437;28;20190;-82
2020/12/03 00:38:49;;;;;;;36.20;32.90;;;;;;;;;;5074333;28;20192;-82
2020/12/03 00:41:16;;;;;;;34.20;31.20;;;;;;;;;;5056366;28;20203;-82
2020/12/03 00:43:43;;;;;;;35.90;32.70;;;;;;;;;;5074260;28;20211;-82
2020/12/03 00:46:10;;;;;;;35.58;32.63;;;;;;;;;;5074465;28;20211;-82
2020/12/03 00:48:38;;;;;;;35.53;32.30;;;;;;;;;;5074128;28;20639;-82
2020/12/03 00:51:05;;;;;;;36.13;33.08;;;;;;;;;;5074567;28;20189;-82
2020/12/03 00:53:33;;;;;;;34.22;31.33;;;;;;;;;;5073892;28;20196;-82
2020/12/03 00:56:00;;;;;;;36.05;33.08;;;;;;;;;;5073851;28;20221;-82
2020/12/03 00:58:27;;;;;;;34.63;31.80;;;;;;;;;;5074108;28;20193;-82
2020/12/03 01:00:54;;;;;;;35.92;32.90;;;;;;;;;;5056462;28;20630;-82
2020/12/03 01:03:20;;;;;;;34.40;31.50;;;;;;;;;;5074298;28;20201;-82
2020/12/03 01:05:47;;;;;;;35.03;31.92;;;;;;;;;;5074433;28;20201;-82
2020/12/03 01:08:14;;;;;;;35.40;32.50;;;;;;;;;;5074938;28;20199;-82
2020/12/03 01:10:42;;;;;;;35.70;32.72;;;;;;;;;;5074390;28;20188;-82
2020/12/03 01:13:09;;;;;;;35.55;32.55;;;;;;;;;;5074261;28;20195;-82
2020/12/03 01:15:36;;;;;;;32.70;30.02;;;;;;;;;;5074444;28;20237;-82
2020/12/03 01:18:03;;;;;;;34.25;31.35;;;;;;;;;;5074009;28;20189;-82
2020/12/03 01:20:30;;;;;;;35.67;32.63;;;;;;;;;;5074144;28;20201;-82
2020/12/03 01:22:58;;;;;;;35.47;32.42;;;;;;;;;;5073895;28;20263;-82
2020/12/03 01:25:25;;;;;;;34.05;31.20;;;;;;;;;;5073927;28;20201;-82
2020/12/03 01:27:53;;;;;;;34.90;32.00;;;;;;;;;;5073685;28;20209;-82
2020/12/03 01:30:21;;;;;;;34.17;31.25;;;;;;;;;;5073517;28;20189;-82
2020/12/03 01:32:47;;;;;;;34.17;31.17;;;;;;;;;;5073477;28;20232;-82
2020/12/03 01:35:16;;;;;;;36.45;33.22;;;;;;;;;;5073527;28;20218;-82
2020/12/03 01:37:44;;;;;;;33.90;31.10;;;;;;;;;;5058223;28;20189;-81
2020/12/03 01:40:12;;;;;;;33.17;30.33;;;;;;;;;;5077321;28;20188;-82
2020/12/03 01:42:39;;;;;;;34.08;31.25;;;;;;;;;;5077287;28;20195;-81
2020/12/03 01:45:21;;;;;;;34.70;31.35;;;;;;;;;;5077174;28;20189;-82
2020/12/03 01:47:50;;;;;;;33.03;30.30;;;;;;;;;;5076412;28;20666;-82
2020/12/03 01:50:17;;;;;;;32.83;30.02;;;;;;;;;;5077253;28;20189;-82
2020/12/03 01:52:44;;;;;;;33.47;30.48;;;;;;;;;;5077244;28;20196;-82
2020/12/03 01:55:11;;;;;;;33.85;31.08;;;;;;;;;;5077082;28;20217;-82
2020/12/03 01:57:50;;;;;;;32.95;30.05;;;;;;;;;;5076851;28;20188;-82
2020/12/03 02:00:17;;;;;;;33.45;30.38;;;;;;;;;;5076473;28;20649;-82
2020/12/03 02:02:47;;;;;;;33.97;31.02;;;;;;;;;;5077068;28;20201;-82
2020/12/03 02:05:16;;;;;;;34.75;32.00;;;;;;;;;;5077196;28;20192;-82
2020/12/03 02:07:44;;;;;;;33.50;30.70;;;;;;;;;;5059584;28;20193;-82
2020/12/03 02:10:11;;;;;;;34.10;31.10;;;;;;;;;;5076881;28;20188;-82
2020/12/03 02:12:38;;;;;;;33.40;30.50;;;;;;;;;;5076691;28;20220;-82
2020/12/03 02:15:06;;;;;;;33.92;31.10;;;;;;;;;;5058660;28;20233;-82
2020/12/03 02:17:33;;;;;;;34.13;31.33;;;;;;;;;;5077070;28;20212;-82
2020/12/03 02:20:01;;;;;;;32.85;30.15;;;;;;;;;;5058715;28;20583;-82
2020/12/03 02:22:28;;;;;;;32.42;29.73;;;;;;;;;;5059052;28;20197;-82
2020/12/03 02:24:55;;;;;;;32.15;29.45;;;;;;;;;;5076361;28;20546;-82
2020/12/03 02:27:23;;;;;;;32.78;29.98;;;;;;;;;;5076533;28;20208;-82
2020/12/03 02:29:50;;;;;;;35.10;32.05;;;;;;;;;;5076365;28;20220;-82
2020/12/03 02:32:17;;;;;;;32.97;30.30;;;;;;;;;;5076241;28;20237;-82
2020/12/03 02:34:44;;;;;;;32.55;29.90;;;;;;;;;;5075961;28;20212;-82
2020/12/03 02:37:12;;;;;;;34.00;31.30;;;;;;;;;;5076537;28;20193;-82
2020/12/03 02:39:40;;;;;;;35.28;32.33;;;;;;;;;;5076197;28;20657;-82
2020/12/03 02:42:08;;;;;;;33.22;30.27;;;;;;;;;;5076475;28;20189;-82
2020/12/03 02:44:35;;;;;;;34.30;31.40;;;;;;;;;;5076034;28;20204;-82
2020/12/03 02:47:02;;;;;;;33.08;30.38;;;;;;;;;;5076064;28;20635;-81
2020/12/03 02:49:29;;;;;;;32.38;29.77;;;;;;;;;;5075321;28;20221;-82
2020/12/03 02:51:56;;;;;;;33.28;30.42;;;;;;;;;;5076149;28;20200;-81
2020/12/03 02:54:24;;;;;;;33.20;30.42;;;;;;;;;;5075717;28;20590;-82
2020/12/03 02:56:51;;;;;;;33.83;30.88;;;;;;;;;;5075771;28;20195;-82
2020/12/03 02:59:17;;;;;;;35.80;32.50;;;;;;;;;;5075920;28;20665;-82
2020/12/03 03:01:44;;;;;;;33.58;30.77;;;;;;;;;;5076114;28;20557;-81
2020/12/03 03:04:11;;;;;;;33.45;30.75;;;;;;;;;;5075611;28;20189;-82
2020/12/03 03:06:38;;;;;;;34.20;31.20;;;;;;;;;;5075673;28;20194;-81
2020/12/03 03:09:06;;;;;;;33.47;30.60;;;;;;;;;;5075730;28;20214;-82
2020/12/03 03:11:35;;;;;;;33.90;31.00;;;;;;;;;;5075829;28;20185;-81
2020/12/03 03:14:02;;;;;;;34.20;31.35;;;;;;;;;;5075704;28;20205;-82
2020/12/03 03:16:29;;;;;;;33.10;30.25;;;;;;;;;;5075660;28;20217;-82
2020/12/03 03:18:56;;;;;;;32.60;29.90;;;;;;;;;;5075616;28;20265;-82
2020/12/03 03:21:23;;;;;;;34.58;31.48;;;;;;;;;;5075700;28;20229;-82
2020/12/03 03:23:50;;;;;;;33.40;30.50;;;;;;;;;;5075582;28;20215;-81
2020/12/03 03:26:17;;;;;;;34.13;31.10;;;;;;;;;;5075429;28;20203;-81
2020/12/03 03:28:45;;;;;;;34.13;31.15;;;;;;;;;;5075556;28;20188;-82
2020/12/03 03:31:12;;;;;;;34.97;31.85;;;;;;;;;;5075086;28;20239;-82
2020/12/03 03:33:39;;;;;;;34.20;30.98;;;;;;;;;;5057544;28;20200;-82
2020/12/03 03:36:06;;;;;;;35.03;32.10;;;;;;;;;;5075242;28;20222;-82
2020/12/03 03:38:33;;;;;;;33.70;30.88;;;;;;;;;;5075040;28;20561;-82
2020/12/03 03:41:00;;;;;;;34.97;31.98;;;;;;;;;;5074830;28;20280;-82
2020/12/03 03:43:27;;;;;;;34.90;31.80;;;;;;;;;;5075288;28;20283;-82
2020/12/03 03:45:54;;;;;;;34.85;31.95;;;;;;;;;;5074720;28;20179;-82
2020/12/03 03:48:21;;;;;;;35.67;32.53;;;;;;;;;;5075111;28;20197;-82
2020/12/03 03:50:48;;;;;;;35.60;32.53;;;;;;;;;;5075298;28;20196;-82
2020/12/03 03:53:15;;;;;;;37.05;33.67;;;;;;;;;;5075710;28;20188;-82
2020/12/03 03:55:42;;;;;;;33.40;30.55;;;;;;;;;;5076199;28;20220;-81
2020/12/03 03:58:09;;;;;;;35.50;32.50;;;;;;;;;;5075006;28;20185;-82
2020/12/03 04:00:40;;;;;;;36.25;32.92;;;;;;;;;;5057332;28;20211;-81
2020/12/03 04:03:12;;;;;;;36.17;33.17;;;;;;;;;;5075475;28;20189;-82
2020/12/03 04:05:39;;;;;;;34.90;31.90;;;;;;;;;;5074904;28;20193;-82
2020/12/03 04:08:05;;;;;;;36.72;33.35;;;;;;;;;;5074848;28;20193;-81
2020/12/03 04:10:32;;;;;;;34.38;31.48;;;;;;;;;;5074723;28;20189;-81
2020/12/03 04:12:59;;;;;;;35.47;32.50;;;;;;;;;;5074664;28;20189;-81
2020/12/03 04:15:26;;;;;;;34.53;31.73;;;;;;;;;;5074247;28;20228;-81
2020/12/03 04:17:53;;;;;;;35.22;32.15;;;;;;;;;;5074182;28;20194;-81
2020/12/03 04:20:21;;;;;;;36.13;33.03;;;;;;;;;;5074000;28;20287;-81
2020/12/03 04:22:48;;;;;;;33.70;30.92;;;;;;;;;;5074468;28;20188;-82
2020/12/03 04:25:15;;;;;;;34.88;31.77;;;;;;;;;;5074501;28;20549;-81
2020/12/03 04:27:42;;;;;;;34.05;31.05;;;;;;;;;;5056895;28;20212;-81
2020/12/03 04:30:10;;;;;;;35.38;32.38;;;;;;;;;;5074922;28;20205;-81
2020/12/03 04:32:38;;;;;;;34.95;31.95;;;;;;;;;;5056435;28;20228;-82
2020/12/03 04:35:05;;;;;;;34.22;31.33;;;;;;;;;;5074708;28;20225;-81
2020/12/03 04:37:33;;;;;;;34.33;31.40;;;;;;;;;;5074225;28;20609;-82
2020/12/03 04:40:00;;;;;;;35.28;32.35;;;;;;;;;;5073896;28;20250;-81
2020/12/03 04:42:28;;;;;;;36.40;33.28;;;;;;;;;;5074251;28;20188;-81
2020/12/03 04:44:57;;;;;;;36.08;32.85;;;;;;;;;;5074278;28;20189;-82
2020/12/03 04:47:42;;;;;;;36.58;33.38;;;;;;;;;;5073773;28;20658;-82
2020/12/03 04:50:12;;;;;;;37.88;34.60;;;;;;;;;;5073803;28;20192;-82
2020/12/03 04:52:53;;;;;;;36.67;33.28;;;;;;;;;;5074587;28;20200;-81
2020/12/03 04:55:24;;;;;;;35.85;32.65;;;;;;;;;;5074022;28;20216;-82
2020/12/03 04:57:54;;;;;;;36.22;33.13;;;;;;;;;;5074683;28;20193;-81
2020/12/03 05:00:27;;;;;;;36.20;33.03;;;;;;;;;;5056190;28;20245;-81
2020/12/03 05:03:11;;;;;;;36.30;33.00;;;;;;;;;;5074059;28;20193;-81
2020/12/03 05:05:40;;;;;;;37.33;34.17;;;;;;;;;;5061301;28;20211;-81
2020/12/03 05:08:10;;;;;;;35.03;31.88;;;;;;;;;;5073888;28;20192;-81
2020/12/03 05:10:41;;;;;;;37.00;33.60;;;;;;;;;;5073278;28;20209;-82
2020/12/03 05:13:18;;;;;;;35.17;32.17;;;;;;;;;;5077399;28;20219;-81
2020/12/03 05:15:45;;;;;;;36.30;33.10;;;;;;;;;;5077280;28;20243;-81
2020/12/03 05:18:22;;;;;;;38.42;34.85;;;;;;;;;;5077584;28;20192;-81
2020/12/03 05:20:50;;;;;;;34.88;31.77;;;;;;;;;;5059859;28;20250;-81
2020/12/03 05:23:18;;;;;;;35.50;32.50;;;;;;;;;;5077411;28;20190;-81
2020/12/03 05:25:47;;;;;;;36.30;32.97;;;;;;;;;;5077016;28;20665;-81
2020/12/03 05:28:34;;;;;;;36.40;33.35;;;;;;;;;;5077331;28;20279;-81
2020/12/03 05:31:10;;;;;;;34.53;31.58;;;;;;;;;;5076793;28;20204;-81
2020/12/03 05:33:37;;;;;;;39.03;35.72;;;;;;;;;;5077306;28;20188;-81
2020/12/03 05:36:04;;;;;;;38.05;34.35;;;;;;;;;;5077534;28;20568;-81
2020/12/03 05:38:32;;;;;;;35.88;32.63;;;;;;;;;;5077133;28;20189;-81
2020/12/03 05:41:00;;;;;;;38.00;34.33;;;;;;;;;;5059424;28;20208;-81
2020/12/03 05:43:27;;;;;;;36.72;33.42;;;;;;;;;;5077158;28;20197;-81
2020/12/03 05:45:54;;;;;;;37.35;34.05;;;;;;;;;;5077001;28;20193;-81
2020/12/03 05:48:22;;;;;;;37.78;34.45;;;;;;;;;;5077175;28;20657;-81
2020/12/03 05:50:48;;;;;;;36.63;33.22;;;;;;;;;;5077348;28;20220;-80
2020/12/03 05:53:18;;;;;;;35.25;31.92;;;;;;;;;;5077305;28;20187;-81
2020/12/03 05:55:46;;;;;;;37.13;33.67;;;;;;;;;;5077831;28;20321;-81
2020/12/03 05:58:15;;;;;;;38.47;34.88;;;;;;;;;;5077154;28;20204;-81
2020/12/03 06:00:42;;;;;;;36.40;33.10;;;;;;;;;;5076901;28;20192;-80
2020/12/03 06:03:17;;;;;;;37.47;34.10;;;;;;;;;;5076671;28;20547;-80
2020/12/03 06:05:47;;;;;;;37.33;33.92;;;;;;;;;;5076825;28;20188;-79
2020/12/03 06:08:33;;;;;;;39.33;35.75;;;;;;;;;;5077030;28;20188;-80
2020/12/03 06:11:15;;;;;;;36.88;33.55;;;;;;;;;;5058495;28;20250;-79
2020/12/03 06:13:55;;;;;;;36.72;33.33;;;;;;;;;;5076409;28;20596;-79
2020/12/03 06:16:28;;;;;;;39.80;35.90;;;;;;;;;;5076444;28;20232;-79
2020/12/03 06:19:10;;;;;;;39.47;35.80;;;;;;;;;;5076411;28;20547;-79
2020/12/03 06:21:44;;;;;;;39.50;35.78;;;;;;;;;;5073480;28;20214;-79
2020/12/03 06:24:20;;;;;;;41.38;37.47;;;;;;;;;;5075917;28;20580;-79
2020/12/03 06:26:58;;;;;;;40.90;37.05;;;;;;;;;;5058370;28;20670;-79
2020/12/03 06:29:38;;;;;;;38.50;35.00;;;;;;;;;;5076015;28;20192;-79
2020/12/03 06:32:11;;;;;;;40.58;36.50;;;;;;;;;;5076056;28;20228;-79
2020/12/03 06:34:41;;;;;;;40.03;36.22;;;;;;;;;;5076238;28;20195;-79
2020/12/03 06:37:15;;;;;;;34.60;31.60;;;;;;;;;;5075844;28;20192;-79
2020/12/03 06:39:44;;;;;;;40.17;35.97;;;;;;;;;;5075504;28;20210;-79
2020/12/03 06:42:18;;;;;;;36.67;33.28;;;;;;;;;;5075855;28;20669;-79
2020/12/03 06:44:48;;;;;;;37.80;34.35;;;;;;;;;;5075790;28;20189;-79
2020/12/03 06:47:33;;;;;;;39.10;35.15;;;;;;;;;;5076139;28;20529;-79
2020/12/03 06:50:30;;;;;;;33.92;30.80;;;;;;;;;;5076081;28;20196;-79
2020/12/03 06:53:27;;;;;;;41.25;37.05;;;;;;;;;;5075495;28;20239;-79
2020/12/03 06:56:12;;;;;;;38.10;34.33;;;;;;;;;;5075121;28;20254;-78
2020/12/03 06:58:50;;;;;;;40.53;36.28;;;;;;;;;;5076083;28;20282;-79
2020/12/03 07:01:41;;;;;;;38.03;34.33;;;;;;;;;;5075345;28;20201;-78
2020/12/03 07:04:24;;;;;;;39.20;35.20;;;;;;;;;;5075529;28;20189;-78
2020/12/03 07:07:12;;;;;;;39.50;35.90;;;;;;;;;;5075234;28;20226;-78
2020/12/03 07:09:54;;;;;;;39.50;35.67;;;;;;;;;;5069323;28;20208;-78
2020/12/03 07:12:31;;;;;;;39.75;35.75;;;;;;;;;;5075480;28;20279;-77
2020/12/03 07:15:17;;;;;;;41.83;37.22;;;;;;;;;;5074857;28;20301;-77
2020/12/03 07:18:02;;;;;;;38.45;34.60;;;;;;;;;;5075861;28;20196;-76
2020/12/03 07:20:47;;;;;;;40.22;36.28;;;;;;;;;;5076235;28;20193;-76
2020/12/03 07:23:18;;;;;;;39.80;35.90;;;;;;;;;;5035623;28;20207;-77
2020/12/03 07:25:45;;;;;;;40.95;37.00;;;;;;;;;;5075652;28;20185;-77
2020/12/03 07:28:20;;;;;;;37.88;34.33;;;;;;;;;;5076100;28;20192;-76
2020/12/03 07:30:49;;;;;;;33.65;30.38;;;;;;;;;;5075754;28;20203;-76
2020/12/03 07:33:29;;;;;;;40.55;36.65;;;;;;;;;;5075460;28;20228;-77
2020/12/03 07:36:10;;;;;;;39.70;35.47;;;;;;;;;;5075435;28;20313;-77
2020/12/03 07:38:40;;;;;;;37.85;33.95;;;;;;;;;;5075873;28;20180;-80
2020/12/03 07:41:07;;;;;;;39.30;35.35;;;;;;;;;;5075029;28;20240;-80
2020/12/03 07:43:35;;;;;;;42.20;37.88;;;;;;;;;;5074550;28;20200;-80
2020/12/03 07:46:03;;;;;;;39.05;35.15;;;;;;;;;;5074650;28;20189;-77
2020/12/03 07:48:44;;;;;;;40.50;36.40;;;;;;;;;;5074544;28;20546;-76
2020/12/03 07:51:13;;;;;;;32.72;29.85;;;;;;;;;;5074490;28;20208;-81
2020/12/03 07:53:41;;;;;;;37.42;33.50;;;;;;;;;;5074572;28;20703;-80
2020/12/03 07:56:26;;;;;;;39.47;35.58;;;;;;;;;;5074420;28;20221;-80
2020/12/03 07:58:53;;;;;;;39.58;35.38;;;;;;;;;;5074269;28;20205;-78
2020/12/03 08:01:35;;;;;;;40.20;36.15;;;;;;;;;;5074545;28;20190;-77
2020/12/03 08:04:20;;;;;;;37.33;33.53;;;;;;;;;;5074119;28;20674;-79
2020/12/03 08:06:50;;;;;;;39.25;35.25;;;;;;;;;;5074647;28;20195;-80
2020/12/03 08:09:24;;;;;;;38.90;35.10;;;;;;;;;;5074694;28;20191;-79
2020/12/03 08:12:06;;;;;;;39.53;35.42;;;;;;;;;;5056710;28;20254;-77
2020/12/03 08:14:36;;;;;;;38.13;34.35;;;;;;;;;;5074446;28;20197;-77
2020/12/03 08:17:05;;;;;;;40.45;36.35;;;;;;;;;;5056769;28;20255;-80
2020/12/03 08:19:32;;;;;;;36.40;32.90;;;;;;;;;;5074303;28;20258;-81
2020/12/03 08:21:59;;;;;;;38.00;34.20;;;;;;;;;;5074364;28;20208;-82
2020/12/03 08:24:28;;;;;;;42.60;38.10;;;;;;;;;;5073906;28;20196;-77
2020/12/03 08:26:59;;;;;;;37.33;33.38;;;;;;;;;;5074431;28;20194;-77
2020/12/03 08:29:45;;;;;;;41.22;36.92;;;;;;;;;;5056281;28;20250;-78
2020/12/03 08:32:12;;;;;;;38.30;34.28;;;;;;;;;;5056101;28;20223;-81
2020/12/03 08:34:40;;;;;;;39.53;35.78;;;;;;;;;;5073949;28;20209;-80
2020/12/03 08:37:11;;;;;;;38.78;34.88;;;;;;;;;;5074301;28;20197;-80
2020/12/03 08:39:38;;;;;;;39.70;35.65;;;;;;;;;;5074226;28;20215;-79
2020/12/03 08:42:07;;;;;;;38.58;34.92;;;;;;;;;;5073932;28;20188;-79
2020/12/03 08:44:35;;;;;;;37.40;33.80;;;;;;;;;;5073799;28;20556;-78
2020/12/03 08:47:07;;;;;;;38.60;34.60;;;;;;;;;;5073375;28;20242;-77
2020/12/03 08:49:34;;;;;;;29.75;27.23;;;;;;;;;;5073990;28;20631;-80
2020/12/03 08:52:02;;;;;;;39.10;35.33;;;;;;;;;;5056250;28;20201;-80
2020/12/03 08:54:30;;;;;;;40.53;36.53;;;;;;;;;;5073772;28;20199;-80
2020/12/03 08:56:58;;;;;;;38.75;34.72;;;;;;;;;;5073995;28;20242;-80
2020/12/03 08:59:28;;;;;;;38.90;34.80;;;;;;;;;;5073936;28;20192;-79
2020/12/03 09:02:09;;;;;;;38.45;34.20;;;;;;;;;;5073888;28;20185;-79
2020/12/03 09:04:37;;;;;;;36.47;31.65;;;;;;;;;;5073876;28;20184;-79
2020/12/03 09:07:06;;;;;;;35.45;32.03;;;;;;;;;;5073737;28;20193;-79
2020/12/03 09:09:33;;;;;;;36.08;32.75;;;;;;;;;;5074443;28;20188;-79
2020/12/03 09:12:00;;;;;;;39.60;35.60;;;;;;;;;;5073748;28;20200;-78
2020/12/03 09:14:28;;;;;;;39.10;35.10;;;;;;;;;;5073576;28;20188;-79
2020/12/03 09:16:58;;;;;;;38.97;34.88;;;;;;;;;;5073682;28;20238;-79
2020/12/03 09:19:26;;;;;;;38.08;34.20;;;;;;;;;;5073778;28;20189;-81
2020/12/03 09:21:53;;;;;;;40.20;36.25;;;;;;;;;;5073623;28;20267;-79
2020/12/03 09:24:22;;;;;;;36.53;32.83;;;;;;;;;;5073413;28;20194;-81
2020/12/03 09:26:49;;;;;;;40.97;36.47;;;;;;;;;;5073214;28;20209;-82
2020/12/03 09:29:16;;;;;;;41.00;36.80;;;;;;;;;;5073683;28;20646;-81
2020/12/03 09:31:42;;;;;;;39.53;35.50;;;;;;;;;;5072900;28;20228;-81
2020/12/03 09:34:10;;;;;;;37.50;33.53;;;;;;;;;;5073592;28;20189;-80
2020/12/03 09:36:38;;;;;;;39.13;35.03;;;;;;;;;;5055401;28;20231;-80
2020/12/03 09:39:05;;;;;;;42.83;37.30;;;;;;;;;;5073450;28;20192;-81
2020/12/03 09:41:33;;;;;;;36.60;33.00;;;;;;;;;;5073393;28;20188;-80
2020/12/03 09:44:04;;;;;;;37.55;33.85;;;;;;;;;;5073420;28;20197;-80
2020/12/03 09:46:31;;;;;;;38.53;34.63;;;;;;;;;;5073343;28;20197;-83
2020/12/03 09:48:58;;;;;;;40.28;36.08;;;;;;;;;;5073452;28;20185;-78
2020/12/03 09:51:25;;;;;;;39.28;35.45;;;;;;;;;;5073430;28;20192;-81
2020/12/03 09:53:52;;;;;;;36.65;33.05;;;;;;;;;;5073327;28;20194;-81
2020/12/03 09:56:19;;;;;;;39.05;34.88;;;;;;;;;;5073152;28;20217;-81
2020/12/03 09:58:47;;;;;;;37.30;33.78;;;;;;;;;;5074999;28;20195;-80
2020/12/03 10:01:16;;;;;;;38.05;34.25;;;;;;;;;;5076665;28;20686;-80
2020/12/03 10:03:53;;;;;;;35.70;32.22;;;;;;;;;;5076797;28;20203;-79
2020/12/03 10:06:24;;;;;;;36.78;32.70;;;;;;;;;;5076705;28;20192;-80
2020/12/03 10:09:06;;;;;;;36.17;32.70;;;;;;;;;;5076669;28;20189;-79
2020/12/03 10:11:50;;;;;;;37.33;33.63;;;;;;;;;;5073761;28;20291;-80
2020/12/03 10:14:35;;;;;;;34.67;31.33;;;;;;;;;;5063636;28;20655;-80
2020/12/03 10:17:05;;;;;;;37.38;33.67;;;;;;;;;;5036645;28;20316;-80
2020/12/03 10:19:32;;;;;;;35.47;32.13;;;;;;;;;;5058822;28;20215;-79
2020/12/03 10:22:01;;;;;;;35.25;31.75;;;;;;;;;;5076579;28;20189;-78
2020/12/03 10:24:36;;;;;;;37.65;33.92;;;;;;;;;;5076492;28;20197;-80
2020/12/03 10:27:08;;;;;;;36.78;33.17;;;;;;;;;;5076637;28;20192;-81
2020/12/03 10:29:46;;;;;;;35.58;32.08;;;;;;;;;;5077108;28;20189;-81
2020/12/03 10:32:14;;;;;;;34.80;31.55;;;;;;;;;;5058363;28;20245;-81
2020/12/03 10:34:43;;;;;;;35.45;32.05;;;;;;;;;;5076666;28;20557;-80
2020/12/03 10:37:22;;;;;;;34.53;31.23;;;;;;;;;;5076451;28;20546;-80
2020/12/03 10:39:52;;;;;;;36.92;33.08;;;;;;;;;;5076175;28;20639;-80
2020/12/03 10:42:20;;;;;;;35.40;32.05;;;;;;;;;;5058409;28;20204;-81
2020/12/03 10:44:49;;;;;;;34.55;31.25;;;;;;;;;;5076617;28;20190;-81
2020/12/03 10:47:18;;;;;;;30.02;27.33;;;;;;;;;;5058471;28;20205;-81
2020/12/03 10:49:46;;;;;;;36.05;32.65;;;;;;;;;;5076057;28;20193;-81
2020/12/03 10:52:13;;;;;;;36.80;33.30;;;;;;;;;;5076293;28;20602;-80
2020/12/03 10:54:41;;;;;;;36.15;32.65;;;;;;;;;;5057988;28;20197;-77
2020/12/03 10:57:14;;;;;;;33.88;30.45;;;;;;;;;;5076183;28;20273;-80
2020/12/03 10:59:42;;;;;;;34.50;31.30;;;;;;;;;;5075823;28;20194;-82
2020/12/03 11:02:21;;;;;;;36.00;32.60;;;;;;;;;;5076163;28;20185;-80
2020/12/03 11:04:49;;;;;;;36.15;32.70;;;;;;;;;;5056531;28;20257;-82
2020/12/03 11:07:16;;;;;;;35.85;32.25;;;;;;;;;;5058235;28;20197;-81
2020/12/03 11:09:43;;;;;;;36.65;33.25;;;;;;;;;;5075015;28;20546;-81
2020/12/03 11:12:11;;;;;;;37.38;33.72;;;;;;;;;;5075422;28;20696;-80
2020/12/03 11:14:38;;;;;;;35.65;32.25;;;;;;;;;;5075379;28;20192;-80
2020/12/03 11:17:09;;;;;;;36.33;32.72;;;;;;;;;;5075289;28;20213;-80
2020/12/03 11:19:38;;;;;;;36.67;33.15;;;;;;;;;;5075150;28;20177;-80
2020/12/03 11:22:12;;;;;;;37.17;33.65;;;;;;;;;;5075709;28;20220;-82
2020/12/03 11:24:44;;;;;;;36.60;33.15;;;;;;;;;;5075382;28;20193;-82
2020/12/03 11:27:12;;;;;;;35.80;32.47;;;;;;;;;;5075547;28;20192;-82
2020/12/03 11:29:39;;;;;;;35.95;32.38;;;;;;;;;;5075617;28;20538;-82
2020/12/03 11:32:06;;;;;;;34.90;31.55;;;;;;;;;;5075175;28;20267;-82
2020/12/03 11:34:37;;;;;;;34.80;31.50;;;;;;;;;;5075421;28;20635;-81
2020/12/03 11:37:04;;;;;;;37.70;33.83;;;;;;;;;;5075719;28;20271;-83
2020/12/03 11:39:31;;;;;;;35.88;32.38;;;;;;;;;;5075633;28;20698;-83
2020/12/03 11:42:24;;;;;;;33.80;30.58;;;;;;;;;;5075446;28;20205;-82
2020/12/03 11:45:22;;;;;;;36.33;32.78;;;;;;;;;;5057584;28;20212;-83
2020/12/03 11:48:07;;;;;;;36.13;32.60;;;;;;;;;;5075533;28;20650;-83
2020/12/03 11:50:37;;;;;;;37.50;34.15;;;;;;;;;;5075133;28;20220;-82
2020/12/03 11:53:05;;;;;;;34.30;31.20;;;;;;;;;;5074768;28;20637;-82
2020/12/03 11:55:32;;;;;;;34.78;31.55;;;;;;;;;;5075230;28;20249;-82
2020/12/03 11:58:05;;;;;;;33.45;30.55;;;;;;;;;;5075073;28;20639;-84
2020/12/03 12:00:32;;;;;;;35.72;32.33;;;;;;;;;;5074952;28;20269;-84
2020/12/03 12:03:03;;;;;;;33.00;29.90;;;;;;;;;;5074843;28;20231;-81
2020/12/03 12:05:38;;;;;;;35.22;31.65;;;;;;;;;;5074565;28;20196;-81
2020/12/03 12:08:13;;;;;;;34.55;31.25;;;;;;;;;;5074479;28;20196;-81
2020/12/03 12:10:44;;;;;;;35.28;32.08;;;;;;;;;;5074614;28;20231;-81
2020/12/03 12:13:14;;;;;;;32.63;29.77;;;;;;;;;;5074638;28;20197;-81
2020/12/03 12:15:41;;;;;;;35.47;32.30;;;;;;;;;;5074264;28;20671;-80
2020/12/03 12:18:08;;;;;;;35.15;31.80;;;;;;;;;;5057083;28;20192;-80
2020/12/03 12:20:36;;;;;;;34.80;31.55;;;;;;;;;;5074265;28;20196;-80
2020/12/03 12:23:02;;;;;;;33.60;30.60;;;;;;;;;;5074180;28;20185;-82
2020/12/03 12:25:30;;;;;;;33.05;30.15;;;;;;;;;;5074491;28;20190;-80
2020/12/03 12:27:57;;;;;;;32.72;29.92;;;;;;;;;;5074129;28;20208;-80
2020/12/03 12:30:24;;;;;;;33.50;30.25;;;;;;;;;;5074319;28;20239;-80
2020/12/03 12:32:51;;;;;;;33.40;30.45;;;;;;;;;;5073690;28;20572;-80
2020/12/03 12:35:18;;;;;;;34.05;30.65;;;;;;;;;;5056335;28;20227;-80
2020/12/03 12:37:45;;;;;;;34.40;31.30;;;;;;;;;;5074293;28;20204;-80
2020/12/03 12:40:12;;;;;;;32.53;29.63;;;;;;;;;;5073830;28;20213;-80
2020/12/03 12:42:39;;;;;;;32.58;29.42;;;;;;;;;;5073546;28;20193;-82
2020/12/03 12:45:06;;;;;;;31.52;28.73;;;;;;;;;;5073444;28;20204;-80
2020/12/03 12:47:33;;;;;;;32.08;29.08;;;;;;;;;;5073794;28;20225;-80
2020/12/03 12:50:00;;;;;;;32.65;29.67;;;;;;;;;;5074012;28;20201;-80
2020/12/03 12:52:28;;;;;;;33.13;30.20;;;;;;;;;;5074106;28;20195;-80
2020/12/03 12:54:55;;;;;;;33.53;30.50;;;;;;;;;;5073612;28;20189;-80
2020/12/03 12:57:22;;;;;;;32.88;29.80;;;;;;;;;;5074016;28;20241;-80
2020/12/03 12:59:50;;;;;;;32.35;29.58;;;;;;;;;;5073974;28;20205;-80
2020/12/03 13:02:17;;;;;;;33.45;30.75;;;;;;;;;;5073555;28;20193;-80
2020/12/03 13:04:44;;;;;;;31.23;28.50;;;;;;;;;;5073675;28;20209;-80
2020/12/03 13:07:10;;;;;;;30.25;27.58;;;;;;;;;;5074109;28;20189;-80
2020/12/03 13:09:37;;;;;;;31.02;28.20;;;;;;;;;;5073427;28;20189;-80
2020/12/03 13:12:04;;;;;;;32.55;29.48;;;;;;;;;;5073579;28;20205;-80
2020/12/03 13:14:31;;;;;;;31.70;28.60;;;;;;;;;;5073767;28;20595;-80
2020/12/03 13:16:59;;;;;;;33.72;30.98;;;;;;;;;;5073381;28;20266;-81
2020/12/03 13:19:26;;;;;;;32.38;29.73;;;;;;;;;;5073685;28;20198;-82
2020/12/03 13:21:53;;;;;;;31.90;29.10;;;;;;;;;;5073891;28;20215;-85
2020/12/03 13:24:20;;;;;;;31.80;28.70;;;;;;;;;;5054342;28;20704;-79
2020/12/03 13:26:47;;;;;;;32.78;29.80;;;;;;;;;;5073510;28;20639;-78
2020/12/03 13:29:13;;;;;;;31.58;28.77;;;;;;;;;;5073939;28;20188;-82
2020/12/03 13:31:40;;;;;;;30.98;28.08;;;;;;;;;;5073846;28;20255;-81
2020/12/03 13:34:08;;;;;;;29.40;26.73;;;;;;;;;;5076484;28;20205;-83
2020/12/03 13:36:35;;;;;;;31.58;28.77;;;;;;;;;;5077912;28;20220;-82
2020/12/03 13:39:02;;;;;;;29.55;26.95;;;;;;;;;;5077657;28;20643;-87
2020/12/03 13:41:29;;;;;;;31.27;28.65;;;;;;;;;;5060411;28;20192;-81
2020/12/03 13:43:56;;;;;;;31.50;28.60;;;;;;;;;;5077693;28;20201;-81
2020/12/03 13:46:23;;;;;;;30.65;28.15;;;;;;;;;;5077409;28;20198;-80
2020/12/03 13:48:50;;;;;;;28.38;25.98;;;;;;;;;;5076938;28;20192;-80
2020/12/03 13:51:17;;;;;;;30.40;27.90;;;;;;;;;;5076935;28;20192;-81
2020/12/03 13:53:44;;;;;;;30.65;28.05;;;;;;;;;;5076832;28;20204;-80
2020/12/03 13:56:11;;;;;;;28.95;26.55;;;;;;;;;;5076690;28;20216;-80
2020/12/03 13:58:38;;;;;;;29.48;27.05;;;;;;;;;;5077079;28;20216;-80
2020/12/03 14:01:05;;;;;;;29.48;26.58;;;;;;;;;;5059194;28;20267;-81
2020/12/03 14:03:32;;;;;;;28.90;26.40;;;;;;;;;;5076927;28;20190;-81
2020/12/03 14:05:59;;;;;;;31.05;28.38;;;;;;;;;;5076770;28;20200;-80
2020/12/03 14:08:27;;;;;;;27.60;25.48;;;;;;;;;;5076967;28;20217;-80
2020/12/03 14:10:54;;;;;;;32.22;29.45;;;;;;;;;;5077002;28;20204;-79
2020/12/03 14:13:22;;;;;;;30.83;28.10;;;;;;;;;;5076621;28;20193;-80
2020/12/03 14:15:48;;;;;;;30.55;28.15;;;;;;;;;;5076656;28;20247;-80
2020/12/03 14:18:15;;;;;;;32.13;29.38;;;;;;;;;;5077541;28;20198;-80
2020/12/03 14:20:42;;;;;;;29.88;27.40;;;;;;;;;;5076615;28;20197;-80
2020/12/03 14:23:09;;;;;;;32.58;29.88;;;;;;;;;;5076442;28;20576;-82
2020/12/03 14:25:37;;;;;;;31.40;28.90;;;;;;;;;;5077297;28;20749;-82
2020/12/03 14:28:03;;;;;;;31.42;28.83;;;;;;;;;;5076811;28;20193;-81
2020/12/03 14:30:30;;;;;;;31.55;28.95;;;;;;;;;;5076089;28;20616;-81
2020/12/03 14:32:57;;;;;;;32.67;29.88;;;;;;;;;;5076243;28;20232;-81